Airfield :
LOGIN :

Register | Disclaimer

   EN    FR    IT 

 










Legend :    VFR   Marginal VFR   IFR   Intensive IFR   Very Intensive IFR
Visi :
Ceiling :
>= 8 km
>= 3000ft
5 to 8 km
1000 to 3000 ft
1500m to 5 km
500 to 1000 ft
800 to 1500m
200 to 500 ft
< 800m
< 200 ft
Symbols :   Thunderstorms  Fog  Heavy snow  Heavy precipitations  Wind > 20 kt
SIGMETs :     Misc.  Thunderstorms  Icing  Turbulence  Mountain Waves  Volcanic Ashes






- Airport Elevation : 768 ft
- IATA code : MXP


LIMC - Milano Malpensa

CURRENT METAR :
  • 020350Z 02004KT 9000 NSC 04/03 Q1018 NOSIG

EXPIRED METARs :
  • 020320Z 02004KT 4000 BR BKN080 04/03 Q1018 NOSIG
  • 020250Z 02003KT 4000 BR BKN080 04/03 Q1018 NOSIG
  • 020220Z 02004KT 4000 BR BKN080 04/03 Q1018 NOSIG
  • 020150Z 02004KT 4000 BR BKN080 04/03 Q1018 NOSIG
  • 020120Z 36004KT 4000 BR BKN080 04/03 Q1018 NOSIG
  • 020050Z 02003KT 340V050 4000 BR BKN080 04/03 Q1018 NOSIG

TAF TAF LIMC
Valid from the 02 at 00:00 until the 03 at 06:00 UTC


012300Z 0200/0306 VRB05KT 2000 BR SCT060
BECMG 0208/0210 7000
BECMG 0216/0218 4000 -DZ BR BKN014



MET'MAP, your aeronautical weather chart ! - Copyright ORBIFLY December 2007 - Disclaimer

ORBIFLY MET'MAP TEAM :

Programming & Development : Alexandra Zaïnal
Original concept : Baudouin d'Aumeries
Technical & hardware support : Manuel Goepfert
Assistance : Marc-Olivier Méhu




SOURCES & CREDITS :

   NOAA